Time;durP1;ratioP1;P1;durP2;ratioP2;P2;SDS_P1;SDS_P2;PMS_P1;PMS_P2;Temp;Humidity;BMP_temperature;BMP_pressure;BME280_temperature;BME280_humidity;BME280_pressure;Samples;Min_cycle;Max_cycle;Signal;HPM_P1;HPM_P2
2021/11/17 02:29:01;;;;;;;18.48;13.60;;;5.60;99.90;;;;;;6040221;29;20128;-90
2021/11/17 02:32:02;;;;;;;19.17;13.20;;;;;;;;;;6023510;29;20491;-88
2021/11/17 02:35:11;;;;;;;19.02;13.13;;;5.70;99.90;;;;;;6021293;29;20504;-87
2021/11/17 02:38:24;;;;;;;16.63;11.50;;;5.80;99.90;;;;;;6031067;29;20476;-87
2021/11/17 02:41:25;;;;;;;;;;;5.60;99.90;;;;;;6026652;29;20060;-90
2021/11/17 02:44:35;;;;;;;15.52;9.63;;;5.60;99.90;;;;;;6066269;28;19906;-87
2021/11/17 02:47:58;;;;;;;12.45;9.27;;;5.70;99.90;;;;;;6178287;28;20081;-90
2021/11/17 02:51:08;;;;;;;;;;;5.70;99.90;;;;;;6180566;28;20036;-90
2021/11/17 02:54:44;;;;;;;8.20;6.95;;;5.60;99.90;;;;;;6178414;28;19909;-88
2021/11/17 02:58:20;;;;;;;10.15;6.93;;;5.80;99.90;;;;;;6177787;28;20482;-89
2021/11/17 03:01:38;;;;;;;9.35;6.72;;;5.40;99.90;;;;;;6160285;28;20396;-86
2021/11/17 03:12:39;;;;;;;7.75;5.70;;;5.50;99.90;;;;;;6195478;28;20109;-88
2021/11/17 03:15:45;;;;;;;10.18;6.85;;;5.60;99.90;;;;;;6161761;28;20041;-88
2021/11/17 03:19:05;;;;;;;8.93;7.10;;;5.80;99.90;;;;;;6178058;28;20042;-89
2021/11/17 03:22:08;;;;;;;14.15;7.93;;;5.70;99.90;;;;;;6162172;28;20520;-89
2021/11/17 03:25:14;;;;;;;7.72;6.22;;;5.70;99.90;;;;;;6195109;28;20042;-89
2021/11/17 03:29:04;;;;;;;11.38;7.88;;;5.70;99.90;;;;;;6177691;28;20149;-87
2021/11/17 03:40:03;;;;;;;;;;;;;;;;;;;;;
2021/11/17 03:47:06;;;;;;;10.52;7.47;;;5.50;99.90;;;;;;6125349;29;20024;-87
2021/11/17 03:50:27;;;;;;;9.82;7.05;;;5.50;99.90;;;;;;6124399;29;20407;-86
2021/11/17 03:53:44;;;;;;;11.57;7.53;;;5.50;99.90;;;;;;6124248;29;20043;-87
2021/11/17 03:57:21;;;;;;;8.70;6.85;;;5.60;99.90;;;;;;6124902;29;20056;-87
2021/11/17 04:00:25;;;;;;;8.45;6.95;;;;;;;;;;6144129;28;20059;-88
2021/11/17 04:07:53;;;;;;;;;;;5.60;99.90;;;;;;6165692;28;20035;-88
2021/11/17 04:11:27;;;;;;;9.27;6.80;;;5.60;99.90;;;;;;6091772;29;19930;-89
2021/11/17 04:14:36;;;;;;;9.68;7.10;;;5.60;99.90;;;;;;6084273;29;20044;-88
2021/11/17 04:17:55;;;;;;;10.57;7.72;;;5.50;99.90;;;;;;6100321;29;20040;-87
2021/11/17 04:20:59;;;;;;;9.32;7.20;;;5.50;99.90;;;;;;6100248;29;20452;-87
2021/11/17 04:24:06;;;;;;;8.73;6.50;;;5.50;99.90;;;;;;6100672;29;20040;-87
2021/11/17 04:27:40;;;;;;;8.45;6.80;;;5.50;99.90;;;;;;6084696;29;20040;-88
2021/11/17 04:30:41;;;;;;;6.70;5.55;;;;;;;;;;6085419;29;20060;-88
2021/11/17 04:34:10;;;;;;;8.07;6.18;;;5.50;99.90;;;;;;6099965;29;20474;-87
2021/11/17 04:37:18;;;;;;;8.43;6.45;;;;;;;;;;6100296;29;20139;-89
2021/11/17 04:40:40;;;;;;;5.47;4.80;;;5.40;99.90;;;;;;6084500;29;20119;-89
2021/11/17 04:43:55;;;;;;;5.00;4.10;;;;;;;;;;6100624;29;20055;-88
2021/11/17 04:47:49;;;;;;;3.70;2.80;;;5.40;99.90;;;;;;6141054;28;20072;-90
2021/11/17 04:51:24;;;;;;;4.55;3.47;;;5.60;99.90;;;;;;6141621;28;20051;-87
2021/11/17 04:54:39;;;;;;;5.80;4.47;;;5.50;99.90;;;;;;6029754;29;20125;-88
2021/11/17 05:02:20;;;;;;;;;;;;;;;;;;;;;
2021/11/17 05:05:42;;;;;;;7.22;4.72;;;;;;;;;;6028972;29;20156;-86
2021/11/17 05:16:46;;;;;;;4.53;3.58;;;;;;;;;;5971229;29;20189;-92
2021/11/17 05:20:08;;;;;;;5.13;3.80;;;5.40;99.90;;;;;;5975022;29;20461;-88
2021/11/17 05:23:09;;;;;;;7.18;4.43;;;;;;;;;;5963647;29;21018;-88
2021/11/17 05:26:41;;;;;;;4.68;3.50;;;5.30;99.90;;;;;;5981459;29;20038;-89
2021/11/17 05:29:42;;;;;;;4.70;3.28;;;;;;;;;;5997235;29;20037;-88
2021/11/17 05:41:10;;;;;;;3.45;2.45;;;;;;;;;;5988888;29;20050;-90
2021/11/17 05:44:34;;;;;;;4.40;2.30;;;5.40;99.90;;;;;;6049261;29;20065;-90
2021/11/17 05:47:49;;;;;;;3.60;2.70;;;5.50;99.90;;;;;;6042353;29;20053;-88
2021/11/17 05:50:59;;;;;;;1.75;1.65;;;5.40;99.90;;;;;;6080485;29;20081;-84
2021/11/17 05:54:21;;;;;;;4.50;2.88;;;5.30;99.90;;;;;;6097763;29;20546;-84
2021/11/17 05:57:36;;;;;;;2.40;2.20;;;5.60;99.90;;;;;;6081303;29;20043;-84
2021/11/17 06:00:40;;;;;;;2.38;2.17;;;;;;;;;;6081313;29;20128;-83
2021/11/17 06:03:55;;;;;;;2.45;2.25;;;5.40;99.90;;;;;;6094842;28;20412;-82
2021/11/17 06:06:56;;;;;;;2.15;1.95;;;;;;;;;;6178288;28;20034;-85
2021/11/17 06:10:17;;;;;;;2.22;2.03;;;5.20;99.90;;;;;;6177815;28;20026;-85
2021/11/17 06:13:18;;;;;;;2.97;2.67;;;5.20;99.90;;;;;;6162236;28;20038;-83
2021/11/17 06:16:19;;;;;;;3.40;2.72;;;5.40;99.90;;;;;;6178624;28;20046;-83
2021/11/17 06:19:21;;;;;;;3.60;2.90;;;5.40;99.90;;;;;;6161795;28;20065;-81
2021/11/17 06:22:24;;;;;;;3.53;2.63;;;5.40;99.90;;;;;;6177204;28;20116;-83
2021/11/17 06:25:25;;;;;;;4.15;2.85;;;5.40;99.90;;;;;;6161517;28;20049;-84
2021/11/17 06:28:27;;;;;;;3.42;3.00;;;5.30;99.90;;;;;;6177295;28;20031;-83
2021/11/17 06:31:28;;;;;;;3.28;2.72;;;;;;;;;;6161587;28;20026;-81
2021/11/17 06:34:41;;;;;;;3.80;3.13;;;5.40;99.90;;;;;;6177360;28;20022;-83
2021/11/17 06:37:42;;;;;;;4.53;2.85;;;5.50;99.90;;;;;;6162884;28;20038;-84
2021/11/17 06:40:44;;;;;;;3.88;3.40;;;5.60;99.90;;;;;;6152868;28;20089;-85
2021/11/17 06:43:45;;;;;;;4.25;3.50;;;;;;;;;;6177906;28;20104;-84
2021/11/17 06:46:48;;;;;;;4.45;3.47;;;5.40;99.90;;;;;;6161404;28;20088;-85
2021/11/17 06:49:49;;;;;;;4.60;3.50;;;5.40;99.90;;;;;;6167164;28;20073;-85
2021/11/17 06:52:55;;;;;;;4.63;3.38;;;6.20;99.90;;;;;;6162488;28;20026;-88
2021/11/17 06:55:56;;;;;;;4.35;3.30;;;;;;;;;;6178259;28;20030;-85
2021/11/17 06:58:57;;;;;;;4.43;3.70;;;;;;;;;;6176784;28;20217;-81
2021/11/17 07:02:04;;;;;;;6.28;3.58;;;;;;;;;;6160854;28;20042;-85
2021/11/17 07:05:06;;;;;;;4.60;3.95;;;5.30;99.90;;;;;;6162467;28;20030;-88
2021/11/17 07:08:07;;;;;;;7.00;4.50;;;;;;;;;;6177314;28;20034;-88
2021/11/17 07:11:08;;;;;;;5.47;4.40;;;;;;;;;;6161740;28;20053;-88
2021/11/17 07:14:09;;;;;;;5.70;4.65;;;5.30;99.90;;;;;;6163210;28;20465;-88
2021/11/17 07:17:10;;;;;;;7.45;4.93;;;5.40;99.90;;;;;;6166195;28;20104;-87
2021/11/17 07:20:11;;;;;;;6.97;5.38;;;;;;;;;;6166203;28;20035;-89
2021/11/17 07:23:12;;;;;;;6.68;5.00;;;5.40;99.90;;;;;;6182611;28;20034;-85
2021/11/17 07:26:13;;;;;;;6.65;5.03;;;;;;;;;;6165698;28;20473;-86
2021/11/17 07:29:14;;;;;;;7.43;4.70;;;;;;;;;;6182177;28;20033;-85
2021/11/17 07:32:16;;;;;;;6.13;5.00;;;;;;;;;;6166121;28;20081;-86
2021/11/17 07:35:18;;;;;;;6.20;4.57;;;5.50;99.90;;;;;;6165856;28;20032;-86
2021/11/17 07:38:20;;;;;;;10.95;5.13;;;5.50;99.90;;;;;;6165705;28;20035;-89
2021/11/17 07:41:21;;;;;;;5.63;4.85;;;;;;;;;;6181534;28;20085;-88
2021/11/17 07:44:22;;;;;;;15.48;5.65;;;5.40;99.90;;;;;;6181782;28;20093;-88
2021/11/17 07:47:23;;;;;;;6.93;5.28;;;;;;;;;;6181486;28;20077;-86
2021/11/17 07:50:24;;;;;;;6.55;5.15;;;;;;;;;;6182130;28;20048;-86
2021/11/17 07:53:25;;;;;;;6.60;5.38;;;5.60;99.90;;;;;;6165721;28;20030;-88
2021/11/17 07:56:26;;;;;;;6.53;5.75;;;;;;;;;;6165479;28;20046;-87
2021/11/17 07:59:27;;;;;;;7.05;5.05;;;;;;;;;;6181485;28;20018;-85
2021/11/17 08:02:29;;;;;;;8.15;5.80;;;;;;;;;;6165653;28;20030;-86
2021/11/17 08:05:30;;;;;;;6.50;5.28;;;5.60;99.90;;;;;;6165180;28;20062;-85
2021/11/17 08:08:31;;;;;;;5.53;4.78;;;;;;;;;;6156778;28;20072;-85
2021/11/17 08:11:32;;;;;;;6.03;4.65;;;;;;;;;;6165440;28;20468;-86
2021/11/17 08:14:33;;;;;;;7.65;5.30;;;5.40;99.90;;;;;;6165283;28;20085;-88
2021/11/17 08:17:34;;;;;;;7.00;5.60;;;;;;;;;;6164850;28;20039;-86
2021/11/17 08:20:35;;;;;;;6.55;4.97;;;5.90;99.90;;;;;;6180997;28;20026;-87
2021/11/17 08:23:36;;;;;;;7.30;5.15;;;;;;;;;;6164909;28;20034;-89
2021/11/17 08:26:36;;;;;;;7.63;5.80;;;5.50;99.90;;;;;;6163642;28;20027;-85
2021/11/17 08:29:37;;;;;;;6.13;4.80;;;;;;;;;;6180934;28;20034;-88
2021/11/17 08:32:39;;;;;;;7.93;4.93;;;;;;;;;;6180239;28;20030;-85
2021/11/17 08:35:39;;;;;;;5.80;4.82;;;5.90;99.90;;;;;;6179992;28;20080;-83
2021/11/17 08:38:40;;;;;;;5.10;3.85;;;;;;;;;;6180069;28;20030;-83
2021/11/17 08:41:42;;;;;;;6.75;3.90;;;;;;;;;;6179589;28;20046;-84
2021/11/17 08:44:43;;;;;;;4.90;3.83;;;6.10;99.90;;;;;;6164397;28;20041;-84
2021/11/17 08:47:44;;;;;;;5.28;3.63;;;;;;;;;;6163252;28;20396;-83
2021/11/17 08:50:46;;;;;;;4.53;3.40;;;;;;;;;;6180230;28;20060;-84
2021/11/17 08:53:48;;;;;;;5.68;3.65;;;6.00;99.90;;;;;;6163660;28;20026;-86
2021/11/17 08:56:50;;;;;;;5.85;4.45;;;;;;;;;;6179825;28;20049;-84
2021/11/17 08:59:51;;;;;;;4.63;3.67;;;6.00;99.90;;;;;;6180360;28;20030;-87
2021/11/17 09:02:52;;;;;;;4.60;3.75;;;;;;;;;;6163640;28;20023;-86
2021/11/17 09:05:55;;;;;;;4.32;3.60;;;6.10;99.90;;;;;;6179880;28;20026;-84
2021/11/17 09:08:56;;;;;;;4.72;3.50;;;5.90;99.90;;;;;;6179262;28;20026;-84
2021/11/17 09:11:56;;;;;;;4.10;3.25;;;;;;;;;;6179212;28;20373;-83
2021/11/17 09:14:57;;;;;;;3.83;3.28;;;;;;;;;;6179158;28;20033;-84
2021/11/17 09:17:58;;;;;;;3.60;2.97;;;6.20;99.90;;;;;;6179106;28;20129;-85
2021/11/17 09:21:00;;;;;;;4.07;3.30;;;;;;;;;;6162977;28;20030;-85
2021/11/17 09:24:05;;;;;;;5.53;3.03;;;5.90;99.90;;;;;;6163102;28;20026;-85
2021/11/17 09:27:06;;;;;;;4.63;3.50;;;6.00;99.90;;;;;;6162480;28;20404;-86
2021/11/17 09:30:08;;;;;;;5.90;4.28;;;6.10;99.90;;;;;;6162977;28;20057;-83
2021/11/17 09:33:10;;;;;;;;;;;6.10;99.90;;;;;;6163502;28;20054;-84
2021/11/17 09:36:11;;;;;;;3.50;2.90;;;6.10;99.90;;;;;;6162056;28;19921;-84
2021/11/17 09:39:12;;;;;;;3.80;3.30;;;6.30;99.90;;;;;;6178319;28;20034;-84
2021/11/17 09:42:15;;;;;;;5.30;3.50;;;6.40;99.90;;;;;;6162288;28;20056;-87
2021/11/17 09:45:16;;;;;;;4.40;3.70;;;6.40;99.90;;;;;;6162550;28;20153;-84
2021/11/17 09:48:20;;;;;;;12.27;10.98;;;6.30;99.90;;;;;;6178439;28;20030;-84
2021/11/17 09:51:25;;;;;;;8.13;6.18;;;6.20;99.90;;;;;;6162489;28;20385;-83
2021/11/17 09:54:26;;;;;;;6.40;4.75;;;;;;;;;;6178090;28;20022;-83
2021/11/17 09:57:32;;;;;;;4.47;3.85;;;6.40;99.90;;;;;;6176915;28;20125;-85
2021/11/17 10:00:52;;;;;;;4.75;3.28;;;6.50;99.90;;;;;;6160603;28;20776;-83
2021/11/17 10:03:53;;;;;;;5.47;3.38;;;;;;;;;;6160845;28;20034;-83
2021/11/17 10:13:36;;;;;;;4.78;3.13;;;6.60;99.90;;;;;;6178326;28;20038;-83
2021/11/17 10:16:37;;;;;;;6.30;3.17;;;;;;;;;;6164353;28;20044;-82
2021/11/17 10:19:38;;;;;;;4.53;3.22;;;;;;;;;;6177965;28;20374;-84
2021/11/17 10:22:39;;;;;;;5.00;3.90;;;7.00;99.90;;;;;;6161960;28;20030;-86
2021/11/17 10:25:41;;;;;;;4.13;3.25;;;7.10;99.90;;;;;;6160679;28;20084;-86
2021/11/17 10:28:54;;;;;;;4.50;3.28;;;6.90;99.90;;;;;;6161106;28;20064;-85
2021/11/17 10:32:00;;;;;;;4.85;3.47;;;6.90;99.90;;;;;;6161570;28;20026;-83
2021/11/17 10:35:12;;;;;;;5.82;3.72;;;6.80;99.90;;;;;;6177827;28;20034;-87
2021/11/17 10:38:21;;;;;;;5.38;3.97;;;7.10;99.90;;;;;;6177315;28;20038;-83
2021/11/17 10:41:31;;;;;;;4.80;3.85;;;6.90;99.90;;;;;;6177181;28;20085;-84
2021/11/17 10:44:38;;;;;;;5.43;4.18;;;7.00;99.90;;;;;;6137312;28;20074;-85
2021/11/17 10:47:46;;;;;;;5.43;3.70;;;7.10;99.90;;;;;;6171054;28;20027;-83
2021/11/17 10:50:46;;;;;;;6.65;4.78;;;6.80;99.90;;;;;;6153357;28;20081;-84
2021/11/17 10:53:53;;;;;;;8.40;4.57;;;7.00;99.90;;;;;;6137697;28;20031;-83
2021/11/17 10:57:04;;;;;;;5.82;5.00;;;6.90;99.90;;;;;;6121448;28;20043;-83
2021/11/17 11:00:06;;;;;;;7.25;4.68;;;7.00;99.90;;;;;;6153746;28;20042;-83
2021/11/17 11:03:07;;;;;;;5.30;4.68;;;7.10;99.90;;;;;;6121370;28;20031;-83
2021/11/17 11:06:22;;;;;;;5.25;4.70;;;7.00;99.90;;;;;;6153673;28;20129;-84
2021/11/17 11:09:29;;;;;;;4.75;3.85;;;7.20;99.90;;;;;;6137316;28;20393;-85
2021/11/17 11:12:30;;;;;;;5.15;4.10;;;7.40;99.90;;;;;;6121693;28;20494;-83
2021/11/17 11:15:46;;;;;;;5.83;5.17;;;7.30;99.90;;;;;;6136917;28;20082;-88
2021/11/17 11:18:51;;;;;;;7.50;4.53;;;7.40;99.90;;;;;;6138632;28;20031;-85
2021/11/17 11:21:52;;;;;;;6.65;4.68;;;7.40;99.90;;;;;;6136953;28;20027;-84
2021/11/17 11:24:54;;;;;;;5.70;4.50;;;7.20;99.90;;;;;;6153273;28;20385;-87
2021/11/17 11:28:35;;;;;;;7.50;5.00;;;7.40;99.90;;;;;;6136778;28;20119;-83
2021/11/17 11:31:47;;;;;;;7.35;4.60;;;7.00;99.90;;;;;;6167929;28;20425;-85
2021/11/17 11:35:08;;;;;;;6.60;4.72;;;7.20;99.90;;;;;;6121474;28;20457;-84
2021/11/17 11:38:08;;;;;;;7.32;4.57;;;7.30;99.90;;;;;;6152800;28;20058;-83
2021/11/17 11:41:22;;;;;;;6.40;4.70;;;6.90;99.90;;;;;;6121093;28;20022;-83
2021/11/17 11:44:24;;;;;;;6.75;4.45;;;7.10;99.90;;;;;;6160261;28;20057;-84
2021/11/17 11:47:25;;;;;;;6.45;4.68;;;;;;;;;;6176403;28;20030;-86
2021/11/17 11:50:32;;;;;;;5.80;4.40;;;6.80;99.90;;;;;;6176671;28;20484;-84
2021/11/17 11:53:57;;;;;;;6.90;4.47;;;7.00;99.90;;;;;;6176288;28;20044;-84
2021/11/17 11:57:01;;;;;;;7.47;5.07;;;6.80;99.90;;;;;;6176496;28;20136;-84
2021/11/17 12:00:05;;;;;;;6.70;5.13;;;6.90;99.90;;;;;;6176379;28;20030;-84
2021/11/17 12:03:11;;;;;;;6.13;4.88;;;6.60;99.90;;;;;;6180745;28;20026;-84
2021/11/17 12:06:21;;;;;;;9.80;6.75;;;6.60;99.90;;;;;;6164987;28;20034;-84
2021/11/17 12:09:35;;;;;;;10.82;7.05;;;6.70;99.90;;;;;;6181139;28;20019;-84
2021/11/17 12:12:40;;;;;;;22.63;9.77;;;6.40;99.90;;;;;;6165441;28;20148;-83
2021/11/17 12:15:53;;;;;;;10.90;6.65;;;6.50;99.90;;;;;;6180525;28;20068;-82
2021/11/17 12:18:55;;;;;;;6.72;4.43;;;6.30;99.90;;;;;;6164880;28;20061;-83
2021/11/17 12:22:05;;;;;;;5.05;3.70;;;6.50;99.90;;;;;;6181448;28;20122;-84
2021/11/17 12:25:20;;;;;;;11.25;7.25;;;6.30;99.90;;;;;;6164412;28;20030;-83
2021/11/17 12:28:21;;;;;;;42.08;24.08;;;;;;;;;;6164224;28;20374;-84
2021/11/17 12:31:25;;;;;;;72.57;34.35;;;6.80;99.90;;;;;;6164272;28;20029;-86
2021/11/17 12:38:26;;;;;;;29.15;16.45;;;6.50;99.90;;;;;;6197345;28;20058;-84
2021/11/17 12:41:30;;;;;;;8.90;7.35;;;6.50;99.90;;;;;;6147477;28;20060;-85
2021/11/17 12:44:45;;;;;;;8.27;6.28;;;6.30;99.90;;;;;;6164158;28;20046;-84
2021/11/17 12:47:48;;;;;;;12.50;8.40;;;6.50;99.90;;;;;;6163808;28;20524;-84
2021/11/17 12:51:13;;;;;;;62.08;37.60;;;6.40;99.90;;;;;;6180025;28;20544;-84
2021/11/17 12:54:16;;;;;;;20.10;15.25;;;6.40;99.90;;;;;;6166140;28;20038;-84
2021/11/17 12:57:17;;;;;;;19.75;14.10;;;;;;;;;;6163206;28;20027;-84
2021/11/17 13:00:21;;;;;;;13.65;10.05;;;6.60;99.90;;;;;;6179611;28;20464;-83
2021/11/17 13:03:24;;;;;;;11.77;9.73;;;;;;;;;;6179978;28;20081;-84
2021/11/17 13:06:28;;;;;;;9.23;7.45;;;6.30;99.90;;;;;;6179188;28;20512;-85
2021/11/17 13:09:30;;;;;;;9.50;6.85;;;;;;;;;;6179409;28;20117;-85
2021/11/17 13:12:40;;;;;;;5.40;4.70;;;;;;;;;;6193627;28;20397;-86
2021/11/17 13:15:44;;;;;;;5.13;4.07;;;6.50;99.90;;;;;;6177580;28;20034;-87
2021/11/17 13:18:44;;;;;;;4.57;4.13;;;6.40;99.90;;;;;;6177947;28;20046;-86
2021/11/17 13:21:59;;;;;;;6.70;4.20;;;6.50;99.90;;;;;;6176485;28;20030;-86
2021/11/17 13:25:13;;;;;;;6.70;4.50;;;6.40;99.90;;;;;;6147107;28;20080;-86
2021/11/17 13:28:33;;;;;;;5.93;4.72;;;6.30;99.90;;;;;;6180116;28;20046;-84
2021/11/17 13:39:37;;;;;;;5.18;4.22;;;6.30;99.90;;;;;;6102528;28;20054;-87
2021/11/17 13:47:12;;;;;;;;;;;;;;;;;;;;;
2021/11/17 13:50:19;;;;;;;9.40;7.45;;;6.30;99.90;;;;;;6097169;29;20134;-87
2021/11/17 13:53:49;;;;;;;63.83;33.90;;;6.30;99.90;;;;;;6078438;29;20044;-89
2021/11/17 13:56:55;;;;;;;26.88;18.20;;;6.20;99.90;;;;;;5973344;29;20533;-88
2021/11/17 13:59:56;;;;;;;9.05;5.90;;;6.40;99.90;;;;;;5979172;29;20129;-85
2021/11/17 14:02:59;;;;;;;11.82;6.55;;;6.50;99.90;;;;;;5979760;29;20042;-87
2021/11/17 14:06:03;;;;;;;8.45;6.25;;;6.20;99.90;;;;;;5981425;29;20454;-81
2021/11/17 14:09:04;;;;;;;26.15;19.88;;;6.50;99.90;;;;;;5976975;29;20044;-86
2021/11/17 14:12:06;;;;;;;9.38;7.68;;;6.40;99.90;;;;;;5980085;29;20062;-84
2021/11/17 14:15:07;;;;;;;7.28;5.03;;;6.40;99.90;;;;;;5975713;29;20042;-83
2021/11/17 14:18:09;;;;;;;16.13;9.82;;;6.50;99.90;;;;;;5982834;29;20494;-82
2021/11/17 14:21:10;;;;;;;8.38;5.65;;;6.50;99.90;;;;;;5973258;29;20039;-83
2021/11/17 14:24:11;;;;;;;5.95;4.57;;;6.30;99.90;;;;;;6022081;29;20796;-84
2021/11/17 14:27:12;;;;;;;10.05;5.53;;;6.20;99.90;;;;;;6080449;29;20063;-85
2021/11/17 14:30:41;;;;;;;12.57;7.68;;;6.30;99.90;;;;;;6093783;29;20451;-87
2021/11/17 14:33:44;;;;;;;9.25;5.00;;;6.40;99.90;;;;;;6123689;28;20046;-83
2021/11/17 14:36:49;;;;;;;6.55;4.65;;;6.40;99.90;;;;;;6161341;28;20038;-88
2021/11/17 14:39:50;;;;;;;12.60;5.93;;;6.40;99.90;;;;;;6160835;28;20495;-80
2021/11/17 14:42:50;;;;;;;7.13;4.95;;;6.40;99.90;;;;;;6160693;28;20058;-79
2021/11/17 14:45:51;;;;;;;8.15;5.50;;;6.10;99.90;;;;;;6176919;28;20034;-82
2021/11/17 14:48:52;;;;;;;8.35;6.82;;;;;;;;;;6161075;28;20084;-85
2021/11/17 14:51:53;;;;;;;7.90;5.82;;;6.20;99.90;;;;;;6177450;28;20053;-86
2021/11/17 14:54:53;;;;;;;9.63;6.35;;;6.30;99.90;;;;;;6160750;28;20029;-83
2021/11/17 14:57:54;;;;;;;9.55;6.20;;;;;;;;;;6160993;28;20049;-83
2021/11/17 15:00:57;;;;;;;9.15;5.90;;;6.20;99.90;;;;;;6176821;28;20114;-83
2021/11/17 15:03:58;;;;;;;9.65;5.60;;;;;;;;;;6177060;28;20023;-83
2021/11/17 15:06:59;;;;;;;7.47;4.70;;;6.30;99.90;;;;;;6160323;28;20084;-83
2021/11/17 15:10:00;;;;;;;6.75;4.88;;;;;;;;;;6176502;28;20030;-84
2021/11/17 15:13:00;;;;;;;7.13;4.93;;;6.30;99.90;;;;;;6176827;28;20033;-84
2021/11/17 15:16:01;;;;;;;8.90;4.75;;;6.10;99.90;;;;;;6160547;28;20117;-84
2021/11/17 15:19:02;;;;;;;5.65;3.95;;;;;;;;;;6160006;28;20037;-83
2021/11/17 15:22:03;;;;;;;7.93;4.78;;;5.90;99.90;;;;;;6160982;28;20050;-85
2021/11/17 15:25:05;;;;;;;30.90;12.57;;;;;;;;;;6176544;28;20027;-83
2021/11/17 15:28:15;;;;;;;13.50;8.63;;;6.00;99.90;;;;;;6177125;28;20027;-83
2021/11/17 15:31:25;;;;;;;12.73;7.65;;;5.90;99.90;;;;;;6160338;28;20372;-85
2021/11/17 15:34:26;;;;;;;22.90;12.20;;;;;;;;;;6177063;28;20600;-85
2021/11/17 15:37:27;;;;;;;34.40;16.02;;;;;;;;;;6165459;28;20034;-86
2021/11/17 15:40:32;;;;;;;22.45;11.55;;;5.90;99.90;;;;;;6165610;28;20030;-85
2021/11/17 15:43:33;;;;;;;45.67;21.58;;;;;;;;;;6165382;28;20073;-84
2021/11/17 15:46:34;;;;;;;27.27;13.07;;;5.80;99.90;;;;;;6181194;28;20035;-82
2021/11/17 15:49:35;;;;;;;11.48;7.97;;;5.80;99.90;;;;;;6148946;28;20027;-84
2021/11/17 15:52:36;;;;;;;7.35;6.03;;;;;;;;;;6164573;28;20042;-84
2021/11/17 15:55:37;;;;;;;7.82;5.43;;;5.80;99.90;;;;;;6181466;28;20033;-83
2021/11/17 15:58:38;;;;;;;6.45;4.97;;;;;;;;;;6164435;28;20089;-81
2021/11/17 16:01:42;;;;;;;8.27;5.43;;;5.90;99.90;;;;;;6180712;28;20046;-82
2021/11/17 16:04:43;;;;;;;7.28;5.15;;;;;;;;;;6181108;28;20037;-84
2021/11/17 16:07:44;;;;;;;12.35;7.97;;;5.60;99.90;;;;;;6198121;28;20417;-82
2021/11/17 16:10:45;;;;;;;10.85;7.18;;;;;;;;;;6180573;28;20105;-82
2021/11/17 16:13:46;;;;;;;7.15;5.45;;;5.50;99.90;;;;;;6179933;28;20026;-81
2021/11/17 16:16:47;;;;;;;5.68;4.95;;;5.70;99.90;;;;;;6164021;28;20038;-81
2021/11/17 16:19:51;;;;;;;6.68;4.80;;;5.50;99.90;;;;;;6177160;28;20026;-84
2021/11/17 16:26:26;;;;;;;8.65;4.85;;;;;;;;;;6129858;28;20122;-84
2021/11/17 16:29:29;;;;;;;7.82;5.70;;;;;;;;;;6196097;28;20489;-85
2021/11/17 16:32:29;;;;;;;8.43;5.95;;;5.60;99.90;;;;;;6164005;28;20481;-87
2021/11/17 16:35:30;;;;;;;9.95;6.55;;;;;;;;;;6180101;28;20041;-84
2021/11/17 16:38:31;;;;;;;7.40;6.00;;;;;;;;;;6179762;28;20034;-87
2021/11/17 16:41:32;;;;;;;6.28;5.40;;;5.80;99.90;;;;;;6163585;28;20034;-83
2021/11/17 16:44:33;;;;;;;8.27;5.30;;;;;;;;;;6179623;28;20034;-83
2021/11/17 16:47:34;;;;;;;9.63;6.35;;;5.80;99.90;;;;;;6163120;28;20485;-82
2021/11/17 16:50:35;;;;;;;8.85;6.20;;;;;;;;;;6179220;28;20085;-84
2021/11/17 16:53:36;;;;;;;7.38;6.20;;;;;;;;;;6179287;28;20073;-85
2021/11/17 16:56:37;;;;;;;8.25;5.82;;;;;;;;;;6179120;28;20069;-86
2021/11/17 16:59:38;;;;;;;7.43;5.72;;;;;;;;;;6177656;28;20085;-86
2021/11/17 17:02:39;;;;;;;6.93;5.28;;;5.40;99.90;;;;;;6178990;28;20022;-86
2021/11/17 17:05:44;;;;;;;6.20;5.20;;;5.70;99.90;;;;;;6162888;28;20851;-84
2021/11/17 17:08:45;;;;;;;8.57;5.38;;;5.40;99.90;;;;;;6163448;28;20030;-84
2021/11/17 17:11:46;;;;;;;7.10;5.03;;;;;;;;;;6162188;28;20412;-85
2021/11/17 17:14:46;;;;;;;7.03;5.32;;;5.50;99.90;;;;;;6177221;28;20069;-86
2021/11/17 17:17:47;;;;;;;11.88;6.57;;;;;;;;;;6162363;28;20038;-83
2021/11/17 17:20:51;;;;;;;10.70;7.05;;;5.50;99.90;;;;;;6178994;28;20109;-82
2021/11/17 17:23:51;;;;;;;10.20;5.57;;;5.50;99.90;;;;;;6177348;28;20022;-83
2021/11/17 17:26:53;;;;;;;8.63;5.90;;;;;;;;;;6177781;28;20033;-83
2021/11/17 17:29:54;;;;;;;9.10;6.93;;;6.10;99.90;;;;;;6163188;28;20054;-90
2021/11/17 17:32:55;;;;;;;9.63;6.75;;;5.50;99.90;;;;;;6163157;28;20036;-85
2021/11/17 17:35:56;;;;;;;10.02;6.47;;;;;;;;;;6160754;28;20030;-83
2021/11/17 17:38:57;;;;;;;7.70;5.93;;;;;;;;;;6177955;28;20033;-82
2021/11/17 17:41:58;;;;;;;8.50;5.93;;;;;;;;;;6162666;28;20481;-85
2021/11/17 17:44:59;;;;;;;9.75;6.13;;;;;;;;;;6162177;28;20026;-86
2021/11/17 17:48:01;;;;;;;8.25;5.55;;;;;;;;;;6178651;28;20026;-82
2021/11/17 17:51:07;;;;;;;6.37;5.07;;;;;;;;;;6178853;28;20160;-87
2021/11/17 17:54:08;;;;;;;8.48;6.40;;;;;;;;;;6130896;28;20050;-84
2021/11/17 17:57:09;;;;;;;6.05;4.93;;;;;;;;;;6156656;28;20486;-83
2021/11/17 18:00:13;;;;;;;5.20;4.55;;;5.50;99.90;;;;;;6129552;28;20030;-81
2021/11/17 18:03:18;;;;;;;9.65;4.47;;;5.60;99.90;;;;;;6149196;28;20035;-81
2021/11/17 18:06:20;;;;;;;27.65;6.85;;;5.60;99.90;;;;;;6151100;28;20125;-82
2021/11/17 18:09:21;;;;;;;19.38;6.15;;;;;;;;;;6148493;28;20039;-81
2021/11/17 18:12:21;;;;;;;15.20;5.20;;;5.70;99.90;;;;;;6148864;28;20031;-81
2021/11/17 18:15:24;;;;;;;14.50;9.18;;;5.40;99.90;;;;;;6143487;28;20043;-83
2021/11/17 18:18:27;;;;;;;10.48;7.40;;;5.60;99.90;;;;;;6117279;28;20046;-85
2021/11/17 18:21:28;;;;;;;11.93;6.18;;;;;;;;;;6133644;28;20103;-82
2021/11/17 18:24:29;;;;;;;7.90;4.55;;;5.70;99.90;;;;;;6153296;28;20042;-83
2021/11/17 18:27:30;;;;;;;12.00;7.50;;;;;;;;;;6177473;28;20608;-84
2021/11/17 18:30:30;;;;;;;6.43;5.30;;;5.80;99.90;;;;;;6193609;28;20025;-85
2021/11/17 18:33:31;;;;;;;6.53;5.25;;;;;;;;;;6161064;28;20469;-83
2021/11/17 18:36:32;;;;;;;5.63;4.70;;;;;;;;;;6177277;28;20026;-84
2021/11/17 18:39:34;;;;;;;5.35;4.70;;;;;;;;;;6160942;28;20495;-83
2021/11/17 18:42:36;;;;;;;6.32;5.20;;;5.90;99.90;;;;;;6176976;28;20646;-83
2021/11/17 18:45:39;;;;;;;13.30;6.07;;;5.80;99.90;;;;;;6176745;28;20439;-83
2021/11/17 18:48:40;;;;;;;5.75;4.60;;;5.60;99.90;;;;;;6158388;28;20127;-83
2021/11/17 18:51:41;;;;;;;7.65;4.82;;;;;;;;;;6160369;28;20026;-83
2021/11/17 18:54:42;;;;;;;6.40;5.28;;;5.70;99.90;;;;;;6175910;28;20026;-83
2021/11/17 18:57:44;;;;;;;14.60;5.80;;;;;;;;;;6175874;28;20065;-88
2021/11/17 19:00:50;;;;;;;7.35;5.00;;;5.80;99.90;;;;;;6176905;28;20068;-84
2021/11/17 19:03:51;;;;;;;6.70;4.78;;;5.60;99.90;;;;;;6177098;28;20038;-85
2021/11/17 19:06:52;;;;;;;7.70;4.80;;;5.70;99.90;;;;;;6161457;28;20031;-86
2021/11/17 19:09:52;;;;;;;5.97;4.95;;;5.90;99.90;;;;;;6177595;28;20483;-86
2021/11/17 19:12:53;;;;;;;6.25;4.70;;;5.50;99.90;;;;;;6160663;28;20026;-86
2021/11/17 19:15:53;;;;;;;6.03;4.68;;;5.70;99.90;;;;;;6176943;28;20034;-87
2021/11/17 19:18:56;;;;;;;5.50;4.50;;;;;;;;;;6177512;28;20577;-86
2021/11/17 19:21:57;;;;;;;7.03;5.45;;;;;;;;;;6177582;28;20027;-85
2021/11/17 19:24:58;;;;;;;7.07;5.50;;;5.60;99.90;;;;;;6177271;28;20624;-87
2021/11/17 19:27:59;;;;;;;9.60;6.45;;;;;;;;;;6176672;28;20031;-86
2021/11/17 19:31:05;;;;;;;7.25;5.10;;;5.50;99.90;;;;;;6177296;28;20404;-86
2021/11/17 19:34:06;;;;;;;9.00;6.15;;;;;;;;;;6162284;28;20030;-86
2021/11/17 19:37:07;;;;;;;7.70;5.78;;;5.40;99.90;;;;;;6177306;28;20041;-86
2021/11/17 19:40:08;;;;;;;7.60;5.55;;;;;;;;;;6160780;28;20042;-87
2021/11/17 19:43:09;;;;;;;7.05;5.90;;;5.60;99.90;;;;;;6176860;28;20057;-85
2021/11/17 19:46:11;;;;;;;6.38;5.53;;;5.50;99.90;;;;;;6160850;28;20370;-85
2021/11/17 19:49:12;;;;;;;6.55;5.00;;;5.20;99.90;;;;;;6161252;28;20035;-85
2021/11/17 19:52:19;;;;;;;8.27;5.30;;;5.40;99.90;;;;;;6161044;28;20030;-87
2021/11/17 19:55:20;;;;;;;5.85;4.90;;;;;;;;;;6161654;28;20151;-85
2021/11/17 19:58:20;;;;;;;7.93;5.65;;;5.20;99.90;;;;;;6176706;28;20045;-86
2021/11/17 20:01:22;;;;;;;9.40;6.20;;;;;;;;;;6176921;28;20489;-84
2021/11/17 20:04:23;;;;;;;10.30;6.93;;;;;;;;;;6176642;28;20023;-85
2021/11/17 20:07:26;;;;;;;8.30;6.65;;;;;;;;;;6176109;28;20393;-84
2021/11/17 20:10:29;;;;;;;9.55;6.25;;;;;;;;;;6160849;28;20462;-84
2021/11/17 20:13:29;;;;;;;;;;;5.40;99.90;;;;;;6161505;28;20457;-86
2021/11/17 20:16:30;;;;;;;6.68;4.75;;;;;;;;;;6160335;28;20012;-87
2021/11/17 20:19:32;;;;;;;8.10;5.13;;;;;;;;;;6176945;28;20026;-85
2021/11/17 20:22:32;;;;;;;5.85;4.75;;;5.40;99.90;;;;;;6162106;28;20037;-87
2021/11/17 20:25:34;;;;;;;7.97;5.35;;;;;;;;;;6180337;28;20030;-88
2021/11/17 20:28:37;;;;;;;8.02;6.25;;;5.30;99.90;;;;;;6164591;28;20381;-85
2021/11/17 20:31:39;;;;;;;9.02;6.63;;;5.40;99.90;;;;;;6180768;28;20366;-85
2021/11/17 20:34:46;;;;;;;8.40;5.70;;;5.30;99.90;;;;;;6181060;28;20022;-85
2021/11/17 20:37:47;;;;;;;23.70;8.18;;;5.50;99.90;;;;;;6180035;28;20042;-79